Markham, Canada
Current Conditions -  °F | °C
As of 8:00 AM on Friday 31 Oct 2014 (Local Time) from CYKZ Reporting Station
Light Rain Light Rain  
Wind Chill:   Ceiling: 2000
Heat Index:   Visibility: 9mi
Dew Point:   Wind: 5mph
Humidity: 93%   Direction: 110°ESE
Pressure: 29.95"   Gusts: NA
Location:  43.86°N, 79.34°W
Report Text: CYKZ 311200Z 11004KT 9SM -RA FEW015 OVC020 05/04 A2995 RMKCF2SC6 SLP149
Loading
Personal Weather Stations






























Interactive Weather Map
Tropical Storm Tracking
New forecast layout! Learn more

10-Day Weather Forecast

Advertisements
Track Severe Weather on mobile